Glenburn, North Dakota
Current Conditions -  °F | °C
As of 12:58 PM on Thursday 23 Oct 2014 (Local Time) from KMIB Reporting Station
Clear Clear  
Wind Chill: 64°   Ceiling: Unl
Heat Index: 64°   Visibility: 10mi
Dew Point: 36°   Wind: 6mph
Humidity: 36%   Direction: 190°S
Pressure: 29.79"   Gusts: NA
Location:  48.51°N, 101.22°W
Report Text: KMIB 231758Z AUTO 19005KT 10SM CLR 18/02 A2979 RMK AO2 SLP096 T01760024 10176 20034 57013 $
Loading
Personal Weather Stations






























Interactive Weather Map
Tropical Storm Tracking
New forecast layout! Learn more

10-Day Weather Forecast

Advertisements
Track Severe Weather on mobile